sensor_id;sensor_type;location;lat;lon;timestamp;P1;durP1;ratioP1;P2;durP2;ratioP2
31782;SDS011;18351;47.560;9.708;2023-09-07T00:00:18;11.85;;;9.43;;
31782;SDS011;18351;47.560;9.708;2023-09-07T00:02:43;13.05;;;9.48;;
31782;SDS011;18351;47.560;9.708;2023-09-07T00:05:09;13.75;;;9.73;;
31782;SDS011;18351;47.560;9.708;2023-09-07T00:07:35;10.45;;;9.35;;
31782;SDS011;18351;47.560;9.708;2023-09-07T00:10:01;13.40;;;8.68;;
31782;SDS011;18351;47.560;9.708;2023-09-07T00:12:28;13.45;;;8.88;;
31782;SDS011;18351;47.560;9.708;2023-09-07T00:14:54;15.45;;;9.90;;
31782;SDS011;18351;47.560;9.708;2023-09-07T00:17:20;13.00;;;9.88;;
31782;SDS011;18351;47.560;9.708;2023-09-07T00:19:46;13.48;;;10.40;;
31782;SDS011;18351;47.560;9.708;2023-09-07T00:22:14;14.88;;;10.15;;
31782;SDS011;18351;47.560;9.708;2023-09-07T00:24:39;13.30;;;10.27;;
31782;SDS011;18351;47.560;9.708;2023-09-07T00:27:05;13.45;;;10.45;;
31782;SDS011;18351;47.560;9.708;2023-09-07T00:29:32;15.35;;;9.98;;
31782;SDS011;18351;47.560;9.708;2023-09-07T00:31:59;12.57;;;9.75;;
31782;SDS011;18351;47.560;9.708;2023-09-07T00:34:25;12.23;;;10.20;;
31782;SDS011;18351;47.560;9.708;2023-09-07T00:36:51;13.70;;;10.57;;
31782;SDS011;18351;47.560;9.708;2023-09-07T00:39:16;12.90;;;10.13;;
31782;SDS011;18351;47.560;9.708;2023-09-07T00:41:42;13.32;;;10.02;;
31782;SDS011;18351;47.560;9.708;2023-09-07T00:44:07;9.93;;;8.90;;
31782;SDS011;18351;47.560;9.708;2023-09-07T00:46:33;12.38;;;9.85;;
31782;SDS011;18351;47.560;9.708;2023-09-07T00:48:58;10.05;;;8.60;;
31782;SDS011;18351;47.560;9.708;2023-09-07T00:51:25;13.32;;;9.07;;
31782;SDS011;18351;47.560;9.708;2023-09-07T00:53:50;11.02;;;9.82;;
31782;SDS011;18351;47.560;9.708;2023-09-07T00:56:17;12.48;;;9.63;;
31782;SDS011;18351;47.560;9.708;2023-09-07T00:58:43;12.95;;;8.48;;
31782;SDS011;18351;47.560;9.708;2023-09-07T01:01:08;10.38;;;8.90;;
31782;SDS011;18351;47.560;9.708;2023-09-07T01:03:34;12.30;;;10.35;;
31782;SDS011;18351;47.560;9.708;2023-09-07T01:06:04;12.30;;;9.70;;
31782;SDS011;18351;47.560;9.708;2023-09-07T01:08:46;13.95;;;11.02;;
31782;SDS011;18351;47.560;9.708;2023-09-07T01:11:14;11.27;;;10.00;;
31782;SDS011;18351;47.560;9.708;2023-09-07T01:13:41;15.52;;;9.95;;
31782;SDS011;18351;47.560;9.708;2023-09-07T01:16:07;15.23;;;10.73;;
31782;SDS011;18351;47.560;9.708;2023-09-07T01:18:34;15.93;;;10.73;;
31782;SDS011;18351;47.560;9.708;2023-09-07T01:21:03;12.18;;;9.50;;
31782;SDS011;18351;47.560;9.708;2023-09-07T01:23:32;13.88;;;11.32;;
31782;SDS011;18351;47.560;9.708;2023-09-07T01:26:00;15.35;;;10.23;;
31782;SDS011;18351;47.560;9.708;2023-09-07T01:28:25;14.82;;;9.20;;
31782;SDS011;18351;47.560;9.708;2023-09-07T01:30:51;11.27;;;9.70;;
31782;SDS011;18351;47.560;9.708;2023-09-07T01:33:17;12.55;;;9.63;;
31782;SDS011;18351;47.560;9.708;2023-09-07T01:35:43;14.13;;;9.32;;
31782;SDS011;18351;47.560;9.708;2023-09-07T01:38:09;11.13;;;9.30;;
31782;SDS011;18351;47.560;9.708;2023-09-07T01:40:35;15.18;;;9.10;;
31782;SDS011;18351;47.560;9.708;2023-09-07T01:43:00;13.50;;;9.93;;
31782;SDS011;18351;47.560;9.708;2023-09-07T01:45:26;13.05;;;10.57;;
31782;SDS011;18351;47.560;9.708;2023-09-07T01:47:52;12.02;;;9.90;;
31782;SDS011;18351;47.560;9.708;2023-09-07T01:50:17;13.38;;;10.90;;
31782;SDS011;18351;47.560;9.708;2023-09-07T01:52:45;13.65;;;10.57;;
31782;SDS011;18351;47.560;9.708;2023-09-07T01:55:13;15.18;;;10.80;;
31782;SDS011;18351;47.560;9.708;2023-09-07T01:57:38;13.77;;;10.73;;
31782;SDS011;18351;47.560;9.708;2023-09-07T02:00:04;14.40;;;11.63;;
31782;SDS011;18351;47.560;9.708;2023-09-07T02:02:30;15.05;;;11.65;;
31782;SDS011;18351;47.560;9.708;2023-09-07T02:04:56;13.57;;;11.68;;
31782;SDS011;18351;47.560;9.708;2023-09-07T02:07:22;19.45;;;12.40;;
31782;SDS011;18351;47.560;9.708;2023-09-07T02:09:47;14.23;;;12.10;;
31782;SDS011;18351;47.560;9.708;2023-09-07T02:12:13;14.30;;;12.32;;
31782;SDS011;18351;47.560;9.708;2023-09-07T02:14:38;13.65;;;12.20;;
31782;SDS011;18351;47.560;9.708;2023-09-07T02:17:04;12.73;;;10.77;;
31782;SDS011;18351;47.560;9.708;2023-09-07T02:19:29;18.30;;;12.90;;
31782;SDS011;18351;47.560;9.708;2023-09-07T02:21:55;21.23;;;12.57;;
31782;SDS011;18351;47.560;9.708;2023-09-07T02:24:21;17.98;;;12.27;;
31782;SDS011;18351;47.560;9.708;2023-09-07T02:26:46;20.98;;;13.00;;
31782;SDS011;18351;47.560;9.708;2023-09-07T02:29:12;13.32;;;11.93;;
31782;SDS011;18351;47.560;9.708;2023-09-07T02:31:38;16.25;;;12.98;;
31782;SDS011;18351;47.560;9.708;2023-09-07T02:34:04;18.98;;;13.23;;
31782;SDS011;18351;47.560;9.708;2023-09-07T02:36:30;14.32;;;12.68;;
31782;SDS011;18351;47.560;9.708;2023-09-07T02:38:56;14.93;;;12.38;;
31782;SDS011;18351;47.560;9.708;2023-09-07T02:41:21;21.55;;;12.15;;
31782;SDS011;18351;47.560;9.708;2023-09-07T02:43:47;13.52;;;10.85;;
31782;SDS011;18351;47.560;9.708;2023-09-07T02:46:13;12.85;;;11.23;;
31782;SDS011;18351;47.560;9.708;2023-09-07T02:48:38;16.17;;;11.32;;
31782;SDS011;18351;47.560;9.708;2023-09-07T02:51:04;14.10;;;10.63;;
31782;SDS011;18351;47.560;9.708;2023-09-07T02:53:30;17.35;;;11.02;;
31782;SDS011;18351;47.560;9.708;2023-09-07T02:55:55;14.63;;;11.95;;
31782;SDS011;18351;47.560;9.708;2023-09-07T02:58:22;20.77;;;11.70;;
31782;SDS011;18351;47.560;9.708;2023-09-07T03:00:48;16.52;;;12.85;;
31782;SDS011;18351;47.560;9.708;2023-09-07T03:03:14;13.07;;;10.40;;
31782;SDS011;18351;47.560;9.708;2023-09-07T03:05:41;14.40;;;12.20;;
31782;SDS011;18351;47.560;9.708;2023-09-07T03:08:07;14.70;;;10.93;;
31782;SDS011;18351;47.560;9.708;2023-09-07T03:10:34;16.48;;;12.15;;
31782;SDS011;18351;47.560;9.708;2023-09-07T03:13:01;14.70;;;12.20;;
31782;SDS011;18351;47.560;9.708;2023-09-07T03:15:27;16.33;;;13.52;;
31782;SDS011;18351;47.560;9.708;2023-09-07T03:17:52;15.35;;;12.05;;
31782;SDS011;18351;47.560;9.708;2023-09-07T03:20:18;16.55;;;12.23;;
31782;SDS011;18351;47.560;9.708;2023-09-07T03:22:44;15.82;;;12.63;;
31782;SDS011;18351;47.560;9.708;2023-09-07T03:25:10;18.02;;;12.25;;
31782;SDS011;18351;47.560;9.708;2023-09-07T03:27:37;18.35;;;12.77;;
31782;SDS011;18351;47.560;9.708;2023-09-07T03:30:03;13.88;;;11.73;;
31782;SDS011;18351;47.560;9.708;2023-09-07T03:32:30;15.63;;;12.88;;
31782;SDS011;18351;47.560;9.708;2023-09-07T03:34:58;15.35;;;13.48;;
31782;SDS011;18351;47.560;9.708;2023-09-07T03:37:29;20.73;;;14.05;;
31782;SDS011;18351;47.560;9.708;2023-09-07T03:39:55;16.02;;;11.43;;
31782;SDS011;18351;47.560;9.708;2023-09-07T03:42:21;15.73;;;12.00;;
31782;SDS011;18351;47.560;9.708;2023-09-07T03:44:47;14.90;;;11.70;;
31782;SDS011;18351;47.560;9.708;2023-09-07T03:47:13;14.27;;;11.60;;
31782;SDS011;18351;47.560;9.708;2023-09-07T03:49:40;16.15;;;12.13;;
31782;SDS011;18351;47.560;9.708;2023-09-07T03:52:06;15.50;;;11.77;;
31782;SDS011;18351;47.560;9.708;2023-09-07T03:54:32;12.73;;;11.25;;
31782;SDS011;18351;47.560;9.708;2023-09-07T03:56:57;20.95;;;12.85;;
31782;SDS011;18351;47.560;9.708;2023-09-07T03:59:23;14.68;;;12.43;;
31782;SDS011;18351;47.560;9.708;2023-09-07T04:01:49;14.95;;;11.05;;
31782;SDS011;18351;47.560;9.708;2023-09-07T04:04:14;13.20;;;11.23;;
31782;SDS011;18351;47.560;9.708;2023-09-07T04:06:40;17.98;;;11.75;;
31782;SDS011;18351;47.560;9.708;2023-09-07T04:09:06;15.52;;;12.02;;
31782;SDS011;18351;47.560;9.708;2023-09-07T04:11:31;14.50;;;12.35;;
31782;SDS011;18351;47.560;9.708;2023-09-07T04:13:57;14.95;;;13.20;;
31782;SDS011;18351;47.560;9.708;2023-09-07T04:16:22;17.00;;;13.52;;
31782;SDS011;18351;47.560;9.708;2023-09-07T04:18:48;14.95;;;11.75;;
31782;SDS011;18351;47.560;9.708;2023-09-07T04:21:13;17.98;;;11.80;;
31782;SDS011;18351;47.560;9.708;2023-09-07T04:23:39;15.27;;;13.43;;
31782;SDS011;18351;47.560;9.708;2023-09-07T04:26:08;19.75;;;13.98;;
31782;SDS011;18351;47.560;9.708;2023-09-07T04:28:35;16.38;;;12.68;;
31782;SDS011;18351;47.560;9.708;2023-09-07T04:31:02;16.92;;;13.65;;
31782;SDS011;18351;47.560;9.708;2023-09-07T04:33:31;18.90;;;13.25;;
31782;SDS011;18351;47.560;9.708;2023-09-07T04:36:07;18.98;;;14.02;;
31782;SDS011;18351;47.560;9.708;2023-09-07T04:38:35;17.42;;;14.40;;
31782;SDS011;18351;47.560;9.708;2023-09-07T04:41:07;19.92;;;14.88;;
31782;SDS011;18351;47.560;9.708;2023-09-07T04:43:34;16.45;;;13.52;;
31782;SDS011;18351;47.560;9.708;2023-09-07T04:46:00;19.17;;;13.55;;
31782;SDS011;18351;47.560;9.708;2023-09-07T04:48:26;16.80;;;13.60;;
31782;SDS011;18351;47.560;9.708;2023-09-07T04:50:58;20.08;;;15.18;;
31782;SDS011;18351;47.560;9.708;2023-09-07T04:53:28;17.65;;;13.93;;
31782;SDS011;18351;47.560;9.708;2023-09-07T04:55:56;19.75;;;15.02;;
31782;SDS011;18351;47.560;9.708;2023-09-07T04:58:21;19.30;;;14.50;;
31782;SDS011;18351;47.560;9.708;2023-09-07T05:00:47;21.88;;;15.25;;
31782;SDS011;18351;47.560;9.708;2023-09-07T05:03:13;17.90;;;14.23;;
31782;SDS011;18351;47.560;9.708;2023-09-07T05:05:39;16.85;;;13.48;;
31782;SDS011;18351;47.560;9.708;2023-09-07T05:08:05;24.17;;;15.38;;
31782;SDS011;18351;47.560;9.708;2023-09-07T05:10:33;18.35;;;14.18;;
31782;SDS011;18351;47.560;9.708;2023-09-07T05:12:59;21.05;;;15.27;;
31782;SDS011;18351;47.560;9.708;2023-09-07T05:15:25;19.50;;;15.63;;
31782;SDS011;18351;47.560;9.708;2023-09-07T05:17:51;21.13;;;15.13;;
31782;SDS011;18351;47.560;9.708;2023-09-07T05:20:17;21.55;;;15.55;;
31782;SDS011;18351;47.560;9.708;2023-09-07T05:22:43;18.98;;;16.05;;
31782;SDS011;18351;47.560;9.708;2023-09-07T05:25:09;17.73;;;14.98;;
31782;SDS011;18351;47.560;9.708;2023-09-07T05:27:35;19.98;;;14.55;;
31782;SDS011;18351;47.560;9.708;2023-09-07T05:30:01;23.70;;;14.27;;
31782;SDS011;18351;47.560;9.708;2023-09-07T05:32:27;16.95;;;13.20;;
31782;SDS011;18351;47.560;9.708;2023-09-07T05:34:52;20.05;;;12.75;;
31782;SDS011;18351;47.560;9.708;2023-09-07T05:37:18;17.85;;;13.75;;
31782;SDS011;18351;47.560;9.708;2023-09-07T05:39:44;18.83;;;12.73;;
31782;SDS011;18351;47.560;9.708;2023-09-07T05:42:09;15.00;;;12.85;;
31782;SDS011;18351;47.560;9.708;2023-09-07T05:44:35;17.70;;;13.43;;
31782;SDS011;18351;47.560;9.708;2023-09-07T05:47:01;15.50;;;12.18;;
31782;SDS011;18351;47.560;9.708;2023-09-07T05:49:27;13.85;;;12.32;;
31782;SDS011;18351;47.560;9.708;2023-09-07T05:51:53;15.05;;;11.98;;
31782;SDS011;18351;47.560;9.708;2023-09-07T05:54:18;15.93;;;11.38;;
31782;SDS011;18351;47.560;9.708;2023-09-07T05:56:44;16.23;;;11.55;;
31782;SDS011;18351;47.560;9.708;2023-09-07T05:59:09;12.13;;;10.85;;
31782;SDS011;18351;47.560;9.708;2023-09-07T06:01:35;15.77;;;11.60;;
31782;SDS011;18351;47.560;9.708;2023-09-07T06:04:01;12.05;;;10.48;;
31782;SDS011;18351;47.560;9.708;2023-09-07T06:06:27;12.40;;;10.38;;
31782;SDS011;18351;47.560;9.708;2023-09-07T06:08:52;13.18;;;11.40;;
31782;SDS011;18351;47.560;9.708;2023-09-07T06:11:18;11.45;;;10.07;;
31782;SDS011;18351;47.560;9.708;2023-09-07T06:13:43;14.32;;;10.35;;
31782;SDS011;18351;47.560;9.708;2023-09-07T06:16:10;12.13;;;10.38;;
31782;SDS011;18351;47.560;9.708;2023-09-07T06:18:36;13.65;;;10.35;;
31782;SDS011;18351;47.560;9.708;2023-09-07T06:21:01;13.57;;;10.35;;
31782;SDS011;18351;47.560;9.708;2023-09-07T06:23:28;13.27;;;10.32;;
31782;SDS011;18351;47.560;9.708;2023-09-07T06:25:53;11.60;;;9.80;;
31782;SDS011;18351;47.560;9.708;2023-09-07T06:28:19;13.50;;;10.57;;
31782;SDS011;18351;47.560;9.708;2023-09-07T06:30:45;12.65;;;10.68;;
31782;SDS011;18351;47.560;9.708;2023-09-07T06:33:10;13.68;;;11.38;;
31782;SDS011;18351;47.560;9.708;2023-09-07T06:35:36;11.93;;;10.55;;
31782;SDS011;18351;47.560;9.708;2023-09-07T06:38:01;12.63;;;10.43;;
31782;SDS011;18351;47.560;9.708;2023-09-07T06:40:27;11.88;;;9.60;;
31782;SDS011;18351;47.560;9.708;2023-09-07T06:42:52;10.45;;;8.75;;
31782;SDS011;18351;47.560;9.708;2023-09-07T06:45:18;9.50;;;8.50;;
31782;SDS011;18351;47.560;9.708;2023-09-07T06:47:44;9.57;;;8.32;;
31782;SDS011;18351;47.560;9.708;2023-09-07T06:50:10;13.13;;;9.18;;
31782;SDS011;18351;47.560;9.708;2023-09-07T06:52:35;13.30;;;9.88;;
31782;SDS011;18351;47.560;9.708;2023-09-07T06:55:01;12.90;;;9.30;;
31782;SDS011;18351;47.560;9.708;2023-09-07T06:57:27;15.68;;;9.35;;
31782;SDS011;18351;47.560;9.708;2023-09-07T06:59:52;11.43;;;10.23;;
31782;SDS011;18351;47.560;9.708;2023-09-07T07:02:18;10.75;;;8.93;;
31782;SDS011;18351;47.560;9.708;2023-09-07T07:04:43;11.07;;;9.25;;
31782;SDS011;18351;47.560;9.708;2023-09-07T07:07:11;9.20;;;8.23;;
31782;SDS011;18351;47.560;9.708;2023-09-07T07:09:36;11.02;;;9.63;;
31782;SDS011;18351;47.560;9.708;2023-09-07T07:12:02;11.30;;;8.40;;
31782;SDS011;18351;47.560;9.708;2023-09-07T07:14:28;10.45;;;9.15;;
31782;SDS011;18351;47.560;9.708;2023-09-07T07:16:53;14.57;;;9.80;;
31782;SDS011;18351;47.560;9.708;2023-09-07T07:19:19;11.38;;;8.82;;
31782;SDS011;18351;47.560;9.708;2023-09-07T07:21:44;12.00;;;8.95;;
31782;SDS011;18351;47.560;9.708;2023-09-07T07:24:10;10.95;;;8.57;;
31782;SDS011;18351;47.560;9.708;2023-09-07T07:26:35;11.60;;;9.70;;
31782;SDS011;18351;47.560;9.708;2023-09-07T07:29:01;12.88;;;10.20;;
31782;SDS011;18351;47.560;9.708;2023-09-07T07:31:28;11.18;;;9.02;;
31782;SDS011;18351;47.560;9.708;2023-09-07T07:33:54;12.25;;;10.25;;
31782;SDS011;18351;47.560;9.708;2023-09-07T07:36:20;12.60;;;9.80;;
31782;SDS011;18351;47.560;9.708;2023-09-07T07:38:46;14.18;;;9.68;;
31782;SDS011;18351;47.560;9.708;2023-09-07T07:41:11;11.93;;;9.95;;
31782;SDS011;18351;47.560;9.708;2023-09-07T07:43:37;11.88;;;9.15;;
31782;SDS011;18351;47.560;9.708;2023-09-07T07:46:03;17.48;;;9.13;;
31782;SDS011;18351;47.560;9.708;2023-09-07T07:48:28;13.15;;;10.32;;
31782;SDS011;18351;47.560;9.708;2023-09-07T07:50:54;14.88;;;9.93;;
31782;SDS011;18351;47.560;9.708;2023-09-07T07:53:20;15.13;;;9.15;;
31782;SDS011;18351;47.560;9.708;2023-09-07T07:55:46;15.40;;;9.52;;
31782;SDS011;18351;47.560;9.708;2023-09-07T07:58:13;13.77;;;9.77;;
31782;SDS011;18351;47.560;9.708;2023-09-07T08:00:39;16.90;;;10.77;;
31782;SDS011;18351;47.560;9.708;2023-09-07T08:03:06;13.85;;;10.07;;
31782;SDS011;18351;47.560;9.708;2023-09-07T08:05:32;10.38;;;8.93;;
31782;SDS011;18351;47.560;9.708;2023-09-07T08:07:58;11.55;;;8.90;;
31782;SDS011;18351;47.560;9.708;2023-09-07T08:10:24;12.32;;;9.38;;
31782;SDS011;18351;47.560;9.708;2023-09-07T08:12:53;13.50;;;11.27;;
31782;SDS011;18351;47.560;9.708;2023-09-07T08:15:20;12.77;;;10.15;;
31782;SDS011;18351;47.560;9.708;2023-09-07T08:17:47;11.52;;;9.68;;
31782;SDS011;18351;47.560;9.708;2023-09-07T08:20:13;10.13;;;8.57;;
31782;SDS011;18351;47.560;9.708;2023-09-07T08:22:40;12.93;;;9.75;;
31782;SDS011;18351;47.560;9.708;2023-09-07T08:25:07;10.10;;;9.00;;
31782;SDS011;18351;47.560;9.708;2023-09-07T08:27:34;15.00;;;10.55;;
31782;SDS011;18351;47.560;9.708;2023-09-07T08:29:59;14.20;;;9.60;;
31782;SDS011;18351;47.560;9.708;2023-09-07T08:32:25;16.77;;;9.93;;
31782;SDS011;18351;47.560;9.708;2023-09-07T08:34:51;11.30;;;8.50;;
31782;SDS011;18351;47.560;9.708;2023-09-07T08:37:21;10.88;;;9.40;;
31782;SDS011;18351;47.560;9.708;2023-09-07T08:39:47;12.68;;;9.05;;
31782;SDS011;18351;47.560;9.708;2023-09-07T08:42:13;11.27;;;9.50;;
31782;SDS011;18351;47.560;9.708;2023-09-07T08:44:39;14.00;;;10.98;;
31782;SDS011;18351;47.560;9.708;2023-09-07T08:47:07;11.52;;;9.10;;
31782;SDS011;18351;47.560;9.708;2023-09-07T08:49:34;10.85;;;7.72;;
31782;SDS011;18351;47.560;9.708;2023-09-07T08:52:01;13.88;;;10.02;;
31782;SDS011;18351;47.560;9.708;2023-09-07T08:54:29;11.25;;;10.05;;
31782;SDS011;18351;47.560;9.708;2023-09-07T08:56:56;15.40;;;10.98;;
31782;SDS011;18351;47.560;9.708;2023-09-07T08:59:23;10.40;;;9.30;;
31782;SDS011;18351;47.560;9.708;2023-09-07T09:01:49;15.63;;;10.50;;
31782;SDS011;18351;47.560;9.708;2023-09-07T09:04:14;12.02;;;10.25;;
31782;SDS011;18351;47.560;9.708;2023-09-07T09:06:40;12.35;;;9.70;;
31782;SDS011;18351;47.560;9.708;2023-09-07T09:09:06;11.30;;;9.63;;
31782;SDS011;18351;47.560;9.708;2023-09-07T09:11:32;10.70;;;8.80;;
31782;SDS011;18351;47.560;9.708;2023-09-07T09:13:57;11.32;;;10.02;;
31782;SDS011;18351;47.560;9.708;2023-09-07T09:16:23;12.13;;;10.32;;
31782;SDS011;18351;47.560;9.708;2023-09-07T09:18:53;11.65;;;8.52;;
31782;SDS011;18351;47.560;9.708;2023-09-07T09:21:24;15.50;;;9.90;;
31782;SDS011;18351;47.560;9.708;2023-09-07T09:23:51;14.82;;;9.18;;
31782;SDS011;18351;47.560;9.708;2023-09-07T09:26:20;12.48;;;8.30;;
31782;SDS011;18351;47.560;9.708;2023-09-07T09:28:46;12.55;;;9.10;;
31782;SDS011;18351;47.560;9.708;2023-09-07T09:31:12;12.23;;;10.35;;
31782;SDS011;18351;47.560;9.708;2023-09-07T09:33:40;17.30;;;12.40;;
31782;SDS011;18351;47.560;9.708;2023-09-07T09:36:07;13.43;;;9.68;;
31782;SDS011;18351;47.560;9.708;2023-09-07T09:38:33;13.23;;;8.73;;
31782;SDS011;18351;47.560;9.708;2023-09-07T09:40:59;10.35;;;8.50;;
31782;SDS011;18351;47.560;9.708;2023-09-07T09:43:25;12.80;;;8.63;;
31782;SDS011;18351;47.560;9.708;2023-09-07T09:45:52;11.45;;;8.70;;
31782;SDS011;18351;47.560;9.708;2023-09-07T09:48:21;12.88;;;9.35;;
31782;SDS011;18351;47.560;9.708;2023-09-07T09:50:48;12.88;;;8.95;;
31782;SDS011;18351;47.560;9.708;2023-09-07T09:53:15;13.05;;;9.55;;
31782;SDS011;18351;47.560;9.708;2023-09-07T09:55:44;9.73;;;8.32;;
31782;SDS011;18351;47.560;9.708;2023-09-07T09:58:12;12.20;;;8.20;;
31782;SDS011;18351;47.560;9.708;2023-09-07T10:00:38;13.10;;;9.43;;
31782;SDS011;18351;47.560;9.708;2023-09-07T10:03:05;10.88;;;8.25;;
31782;SDS011;18351;47.560;9.708;2023-09-07T10:05:38;14.13;;;9.20;;
31782;SDS011;18351;47.560;9.708;2023-09-07T10:08:13;13.63;;;9.73;;
31782;SDS011;18351;47.560;9.708;2023-09-07T10:10:43;16.75;;;10.32;;
31782;SDS011;18351;47.560;9.708;2023-09-07T10:13:13;12.45;;;7.80;;
31782;SDS011;18351;47.560;9.708;2023-09-07T10:15:39;15.00;;;10.00;;
31782;SDS011;18351;47.560;9.708;2023-09-07T10:18:12;12.43;;;9.05;;
31782;SDS011;18351;47.560;9.708;2023-09-07T10:20:55;13.90;;;10.30;;
31782;SDS011;18351;47.560;9.708;2023-09-07T10:23:23;13.98;;;10.30;;
31782;SDS011;18351;47.560;9.708;2023-09-07T10:26:15;12.15;;;9.15;;
31782;SDS011;18351;47.560;9.708;2023-09-07T10:28:43;11.55;;;10.05;;
31782;SDS011;18351;47.560;9.708;2023-09-07T10:33:39;11.57;;;10.20;;
31782;SDS011;18351;47.560;9.708;2023-09-07T10:36:05;9.93;;;8.50;;
31782;SDS011;18351;47.560;9.708;2023-09-07T10:38:34;15.05;;;9.82;;
31782;SDS011;18351;47.560;9.708;2023-09-07T10:41:01;14.07;;;10.70;;
31782;SDS011;18351;47.560;9.708;2023-09-07T10:43:29;13.65;;;10.07;;
31782;SDS011;18351;47.560;9.708;2023-09-07T10:45:56;15.07;;;11.02;;
31782;SDS011;18351;47.560;9.708;2023-09-07T10:48:24;11.43;;;8.95;;
31782;SDS011;18351;47.560;9.708;2023-09-07T10:50:50;12.73;;;9.30;;
31782;SDS011;18351;47.560;9.708;2023-09-07T10:53:23;11.52;;;8.68;;
31782;SDS011;18351;47.560;9.708;2023-09-07T10:55:52;11.73;;;9.13;;
31782;SDS011;18351;47.560;9.708;2023-09-07T11:00:55;9.85;;;8.77;;
31782;SDS011;18351;47.560;9.708;2023-09-07T11:03:21;12.18;;;10.20;;
31782;SDS011;18351;47.560;9.708;2023-09-07T11:05:47;10.23;;;8.90;;
31782;SDS011;18351;47.560;9.708;2023-09-07T11:08:13;11.15;;;8.82;;
31782;SDS011;18351;47.560;9.708;2023-09-07T11:10:39;13.85;;;9.80;;
31782;SDS011;18351;47.560;9.708;2023-09-07T11:13:05;10.43;;;8.85;;
31782;SDS011;18351;47.560;9.708;2023-09-07T11:15:31;8.73;;;7.65;;
31782;SDS011;18351;47.560;9.708;2023-09-07T11:17:58;11.63;;;9.35;;
31782;SDS011;18351;47.560;9.708;2023-09-07T11:20:37;11.63;;;8.30;;
31782;SDS011;18351;47.560;9.708;2023-09-07T11:23:06;12.07;;;9.23;;
31782;SDS011;18351;47.560;9.708;2023-09-07T11:25:35;20.40;;;11.85;;
31782;SDS011;18351;47.560;9.708;2023-09-07T11:28:03;9.18;;;8.13;;
31782;SDS011;18351;47.560;9.708;2023-09-07T11:30:33;10.32;;;8.85;;
31782;SDS011;18351;47.560;9.708;2023-09-07T11:33:00;12.13;;;8.93;;
31782;SDS011;18351;47.560;9.708;2023-09-07T11:35:33;12.93;;;10.02;;
31782;SDS011;18351;47.560;9.708;2023-09-07T11:38:03;9.60;;;8.25;;
31782;SDS011;18351;47.560;9.708;2023-09-07T11:40:30;11.25;;;9.63;;
31782;SDS011;18351;47.560;9.708;2023-09-07T11:42:56;13.52;;;9.60;;
31782;SDS011;18351;47.560;9.708;2023-09-07T11:45:21;11.60;;;10.40;;
31782;SDS011;18351;47.560;9.708;2023-09-07T11:47:47;12.18;;;9.90;;
31782;SDS011;18351;47.560;9.708;2023-09-07T11:50:13;13.90;;;10.30;;
31782;SDS011;18351;47.560;9.708;2023-09-07T11:52:42;13.55;;;9.57;;
31782;SDS011;18351;47.560;9.708;2023-09-07T11:55:07;11.35;;;9.63;;
31782;SDS011;18351;47.560;9.708;2023-09-07T11:57:35;14.43;;;9.65;;
31782;SDS011;18351;47.560;9.708;2023-09-07T12:00:01;12.60;;;9.75;;
31782;SDS011;18351;47.560;9.708;2023-09-07T12:02:27;12.75;;;8.18;;
31782;SDS011;18351;47.560;9.708;2023-09-07T12:04:53;12.63;;;9.25;;
31782;SDS011;18351;47.560;9.708;2023-09-07T12:07:19;14.07;;;9.43;;
31782;SDS011;18351;47.560;9.708;2023-09-07T12:09:45;11.50;;;8.57;;
31782;SDS011;18351;47.560;9.708;2023-09-07T12:12:10;13.38;;;9.57;;
31782;SDS011;18351;47.560;9.708;2023-09-07T12:14:36;11.15;;;9.18;;
31782;SDS011;18351;47.560;9.708;2023-09-07T12:17:01;11.50;;;10.20;;
31782;SDS011;18351;47.560;9.708;2023-09-07T12:19:28;11.40;;;9.70;;
31782;SDS011;18351;47.560;9.708;2023-09-07T12:21:53;9.13;;;8.18;;
31782;SDS011;18351;47.560;9.708;2023-09-07T12:24:19;10.57;;;8.20;;
31782;SDS011;18351;47.560;9.708;2023-09-07T12:26:44;12.65;;;9.05;;
31782;SDS011;18351;47.560;9.708;2023-09-07T12:29:10;9.93;;;8.77;;
31782;SDS011;18351;47.560;9.708;2023-09-07T12:31:36;10.32;;;8.65;;
31782;SDS011;18351;47.560;9.708;2023-09-07T12:34:02;10.85;;;8.40;;
31782;SDS011;18351;47.560;9.708;2023-09-07T12:36:27;12.18;;;8.63;;
31782;SDS011;18351;47.560;9.708;2023-09-07T12:38:55;9.55;;;8.55;;
31782;SDS011;18351;47.560;9.708;2023-09-07T12:41:26;10.98;;;9.07;;
31782;SDS011;18351;47.560;9.708;2023-09-07T12:43:55;10.30;;;7.45;;
31782;SDS011;18351;47.560;9.708;2023-09-07T12:46:21;10.60;;;7.80;;
31782;SDS011;18351;47.560;9.708;2023-09-07T12:48:47;8.35;;;7.45;;
31782;SDS011;18351;47.560;9.708;2023-09-07T12:51:12;11.20;;;8.70;;
31782;SDS011;18351;47.560;9.708;2023-09-07T12:53:38;12.38;;;8.48;;
31782;SDS011;18351;47.560;9.708;2023-09-07T12:56:04;13.48;;;8.50;;
31782;SDS011;18351;47.560;9.708;2023-09-07T12:58:30;10.25;;;9.00;;
31782;SDS011;18351;47.560;9.708;2023-09-07T13:00:56;8.13;;;7.05;;
31782;SDS011;18351;47.560;9.708;2023-09-07T13:03:21;10.98;;;8.50;;
31782;SDS011;18351;47.560;9.708;2023-09-07T13:05:47;13.38;;;8.48;;
31782;SDS011;18351;47.560;9.708;2023-09-07T13:08:13;11.35;;;8.38;;
31782;SDS011;18351;47.560;9.708;2023-09-07T13:10:39;8.57;;;7.68;;
31782;SDS011;18351;47.560;9.708;2023-09-07T13:13:05;10.05;;;7.90;;
31782;SDS011;18351;47.560;9.708;2023-09-07T13:15:31;15.68;;;8.10;;
31782;SDS011;18351;47.560;9.708;2023-09-07T13:17:56;8.25;;;7.45;;
31782;SDS011;18351;47.560;9.708;2023-09-07T13:20:22;10.10;;;9.00;;
31782;SDS011;18351;47.560;9.708;2023-09-07T13:22:47;11.43;;;9.00;;
31782;SDS011;18351;47.560;9.708;2023-09-07T13:25:13;9.90;;;8.90;;
31782;SDS011;18351;47.560;9.708;2023-09-07T13:27:38;13.02;;;8.43;;
31782;SDS011;18351;47.560;9.708;2023-09-07T13:30:04;12.15;;;7.20;;
31782;SDS011;18351;47.560;9.708;2023-09-07T13:32:32;11.05;;;7.75;;
31782;SDS011;18351;47.560;9.708;2023-09-07T13:34:58;12.90;;;8.25;;
31782;SDS011;18351;47.560;9.708;2023-09-07T13:37:24;15.48;;;8.40;;
31782;SDS011;18351;47.560;9.708;2023-09-07T13:39:50;8.70;;;7.55;;
31782;SDS011;18351;47.560;9.708;2023-09-07T13:42:15;9.57;;;7.88;;
31782;SDS011;18351;47.560;9.708;2023-09-07T13:44:41;9.43;;;8.45;;
31782;SDS011;18351;47.560;9.708;2023-09-07T13:47:06;11.70;;;8.00;;
31782;SDS011;18351;47.560;9.708;2023-09-07T13:49:35;9.32;;;7.70;;
31782;SDS011;18351;47.560;9.708;2023-09-07T13:52:00;8.23;;;7.13;;
31782;SDS011;18351;47.560;9.708;2023-09-07T13:54:26;9.38;;;7.18;;
31782;SDS011;18351;47.560;9.708;2023-09-07T13:56:52;9.43;;;7.63;;
31782;SDS011;18351;47.560;9.708;2023-09-07T13:59:17;9.32;;;7.43;;
31782;SDS011;18351;47.560;9.708;2023-09-07T14:01:43;14.63;;;8.20;;
31782;SDS011;18351;47.560;9.708;2023-09-07T14:04:08;9.90;;;8.90;;
31782;SDS011;18351;47.560;9.708;2023-09-07T14:06:34;11.07;;;7.72;;
31782;SDS011;18351;47.560;9.708;2023-09-07T14:08:59;13.93;;;7.82;;
31782;SDS011;18351;47.560;9.708;2023-09-07T14:11:25;9.63;;;7.30;;
31782;SDS011;18351;47.560;9.708;2023-09-07T14:13:51;10.43;;;7.68;;
31782;SDS011;18351;47.560;9.708;2023-09-07T14:16:19;10.88;;;7.07;;
31782;SDS011;18351;47.560;9.708;2023-09-07T14:18:45;8.98;;;7.25;;
31782;SDS011;18351;47.560;9.708;2023-09-07T14:21:14;8.93;;;6.88;;
31782;SDS011;18351;47.560;9.708;2023-09-07T14:23:41;8.93;;;7.32;;
31782;SDS011;18351;47.560;9.708;2023-09-07T14:26:07;8.70;;;7.00;;
31782;SDS011;18351;47.560;9.708;2023-09-07T14:28:33;10.27;;;7.50;;